createdAt,value
2022-10-30T00:00:35.772Z,0.00
2022-10-30T00:01:35.830Z,0.00
2022-10-30T00:02:35.840Z,0.00
2022-10-30T00:03:35.736Z,0.00
2022-10-30T00:04:35.726Z,0.00
2022-10-30T00:05:35.713Z,0.00
2022-10-30T00:06:35.710Z,0.00
2022-10-30T00:07:35.687Z,0.00
2022-10-30T00:08:35.682Z,0.00
2022-10-30T00:09:35.665Z,0.00
2022-10-30T00:10:35.661Z,0.00
2022-10-30T00:11:35.651Z,0.00
2022-10-30T00:12:35.636Z,0.00
2022-10-30T00:13:35.622Z,0.00
2022-10-30T00:14:35.611Z,0.00
2022-10-30T00:15:35.596Z,0.00
2022-10-30T00:16:35.599Z,0.00
2022-10-30T00:17:35.576Z,0.00
2022-10-30T00:18:35.567Z,0.00
2022-10-30T00:19:35.551Z,0.00
2022-10-30T00:20:35.548Z,0.00
2022-10-30T00:21:35.539Z,0.00
2022-10-30T00:22:35.523Z,0.00
2022-10-30T00:23:35.509Z,0.00
2022-10-30T00:24:35.501Z,0.00
2022-10-30T00:25:35.483Z,0.00
2022-10-30T00:26:35.485Z,0.00
2022-10-30T00:27:35.463Z,0.00
2022-10-30T00:28:35.455Z,0.00
2022-10-30T00:29:35.443Z,0.00
2022-10-30T00:30:35.444Z,0.00
2022-10-30T00:31:35.426Z,0.00
2022-10-30T00:32:35.411Z,0.00
2022-10-30T00:33:35.396Z,0.00
2022-10-30T00:34:35.386Z,0.00
2022-10-30T00:35:35.495Z,0.00
2022-10-30T00:36:35.381Z,0.00
2022-10-30T00:37:35.350Z,0.00
2022-10-30T00:38:35.342Z,0.00
2022-10-30T00:39:35.331Z,0.00
2022-10-30T00:40:35.315Z,0.00
2022-10-30T00:41:35.308Z,0.00
2022-10-30T00:42:35.322Z,0.00
2022-10-30T00:43:35.288Z,0.00
2022-10-30T00:44:35.270Z,0.00
2022-10-30T00:45:35.265Z,0.00
2022-10-30T00:46:35.252Z,0.00
2022-10-30T00:47:35.250Z,0.00
2022-10-30T00:48:35.223Z,0.00
2022-10-30T00:49:35.221Z,0.00
2022-10-30T00:50:35.204Z,0.00
2022-10-30T00:51:35.198Z,0.00
2022-10-30T00:52:35.189Z,0.00
2022-10-30T00:53:35.177Z,0.00
2022-10-30T00:54:35.157Z,0.00
2022-10-30T00:55:35.149Z,0.00
2022-10-30T00:56:35.133Z,0.00
2022-10-30T00:57:35.135Z,0.00
2022-10-30T00:58:35.116Z,0.00
2022-10-30T00:59:35.100Z,0.00
2022-10-30T01:00:35.096Z,0.00
2022-10-30T01:01:35.204Z,0.00
2022-10-30T01:02:35.204Z,0.00
2022-10-30T01:03:35.055Z,0.00
2022-10-30T01:04:35.048Z,0.00
2022-10-30T01:05:35.037Z,0.00
2022-10-30T01:06:35.029Z,0.00
2022-10-30T01:07:35.018Z,0.00
2022-10-30T01:08:35.083Z,0.00
2022-10-30T01:09:34.989Z,0.00
2022-10-30T01:10:34.989Z,0.00
2022-10-30T01:11:34.967Z,0.00
2022-10-30T01:12:34.968Z,0.00
2022-10-30T01:13:34.942Z,0.00
2022-10-30T01:14:34.936Z,0.00
2022-10-30T01:15:34.919Z,0.00
2022-10-30T01:16:34.912Z,0.00
2022-10-30T01:17:34.909Z,0.00
2022-10-30T01:18:34.891Z,0.00
2022-10-30T01:19:34.882Z,0.00
2022-10-30T01:20:34.871Z,0.00
2022-10-30T01:21:34.857Z,0.00
2022-10-30T01:22:34.853Z,0.00
2022-10-30T01:23:34.832Z,0.00
2022-10-30T01:24:34.825Z,0.00
2022-10-30T01:25:34.809Z,0.00
2022-10-30T01:26:34.799Z,0.00
2022-10-30T01:27:34.794Z,0.00
2022-10-30T01:28:34.779Z,0.00
2022-10-30T01:29:34.763Z,0.00
2022-10-30T01:30:34.761Z,0.00
2022-10-30T01:31:34.740Z,0.00
2022-10-30T01:32:34.742Z,0.00
2022-10-30T01:33:34.716Z,0.00
2022-10-30T01:34:34.744Z,0.00
2022-10-30T01:35:34.705Z,0.00
2022-10-30T01:36:34.696Z,0.00
2022-10-30T01:37:34.670Z,0.00
2022-10-30T01:38:34.663Z,0.00
2022-10-30T01:39:34.650Z,0.00
2022-10-30T01:40:34.642Z,0.00
2022-10-30T01:41:34.642Z,0.00
2022-10-30T01:42:34.621Z,0.00
2022-10-30T01:43:34.604Z,0.00
2022-10-30T01:44:34.596Z,0.00
2022-10-30T01:45:34.583Z,0.00
2022-10-30T01:46:34.584Z,0.00
2022-10-30T01:47:34.558Z,0.00
2022-10-30T01:48:34.553Z,0.00
2022-10-30T01:49:34.540Z,0.00
2022-10-30T01:50:34.530Z,0.00
2022-10-30T01:51:34.532Z,0.00
2022-10-30T01:52:34.507Z,0.00
2022-10-30T01:53:34.493Z,0.00
2022-10-30T01:54:34.485Z,0.00
2022-10-30T01:55:34.471Z,0.00
2022-10-30T01:56:34.465Z,0.00
2022-10-30T01:57:34.463Z,0.00
2022-10-30T01:58:34.444Z,0.00
2022-10-30T01:59:34.427Z,0.00
2022-10-30T02:00:34.420Z,0.00
2022-10-30T02:01:34.488Z,0.00
2022-10-30T02:02:34.533Z,0.00
2022-10-30T02:03:34.383Z,0.00
2022-10-30T02:04:34.378Z,0.00
2022-10-30T02:05:34.361Z,0.00
2022-10-30T02:06:34.355Z,0.00
2022-10-30T02:07:34.348Z,0.00
2022-10-30T02:08:34.332Z,0.00
2022-10-30T02:09:34.317Z,0.00
2022-10-30T02:10:34.312Z,0.00
2022-10-30T02:11:34.304Z,0.00
2022-10-30T02:12:34.290Z,0.00
2022-10-30T02:13:34.273Z,0.00
2022-10-30T02:14:34.266Z,0.00
2022-10-30T02:15:34.253Z,0.00
2022-10-30T02:16:34.246Z,0.00
2022-10-30T02:17:34.245Z,0.00
2022-10-30T02:18:34.448Z,0.00
2022-10-30T02:19:34.209Z,0.00
2022-10-30T02:20:34.201Z,0.00
2022-10-30T02:21:34.188Z,0.00
2022-10-30T02:22:34.267Z,0.00
2022-10-30T02:23:34.163Z,0.00
2022-10-30T02:24:34.158Z,0.00
2022-10-30T02:25:34.139Z,0.00
2022-10-30T02:26:34.134Z,0.00
2022-10-30T02:27:34.126Z,0.00
2022-10-30T02:28:34.111Z,0.00
2022-10-30T02:29:34.097Z,0.00
2022-10-30T02:30:34.093Z,0.00
2022-10-30T02:31:34.073Z,0.00
2022-10-30T02:32:34.076Z,0.00
2022-10-30T02:33:34.055Z,0.00
2022-10-30T02:34:34.044Z,0.00
2022-10-30T02:35:34.030Z,0.00
2022-10-30T02:36:34.022Z,0.00
2022-10-30T02:37:34.015Z,0.00
2022-10-30T02:38:34.002Z,0.00
2022-10-30T02:39:33.983Z,0.00
2022-10-30T02:40:33.979Z,0.00
2022-10-30T02:41:33.962Z,0.00
2022-10-30T02:42:33.963Z,0.00
2022-10-30T02:43:33.939Z,0.00
2022-10-30T02:44:33.933Z,0.00
2022-10-30T02:45:33.918Z,0.00
2022-10-30T02:46:33.912Z,0.00
2022-10-30T02:47:33.908Z,0.00
2022-10-30T02:48:33.889Z,0.00
2022-10-30T02:49:33.872Z,0.00
2022-10-30T02:50:33.872Z,0.00
2022-10-30T02:51:33.851Z,0.00
2022-10-30T02:52:33.852Z,0.00
2022-10-30T02:53:33.829Z,0.00
2022-10-30T02:54:33.822Z,0.00
2022-10-30T02:55:33.805Z,0.00
2022-10-30T02:56:33.797Z,0.00
2022-10-30T02:57:33.820Z,0.00
2022-10-30T02:58:33.782Z,0.00
2022-10-30T02:59:33.761Z,0.00
2022-10-30T03:00:33.753Z,0.00
2022-10-30T03:01:33.849Z,0.00
2022-10-30T03:02:33.748Z,0.00
2022-10-30T03:03:33.718Z,0.00
2022-10-30T03:04:33.713Z,0.00
2022-10-30T03:05:33.695Z,0.00
2022-10-30T03:06:33.689Z,0.00
2022-10-30T03:07:33.710Z,0.00
2022-10-30T03:08:33.667Z,0.00
2022-10-30T03:09:33.649Z,0.00
2022-10-30T03:10:33.645Z,0.00
2022-10-30T03:11:33.630Z,0.00
2022-10-30T03:12:33.755Z,0.00
2022-10-30T03:13:33.607Z,0.00
2022-10-30T03:14:33.603Z,0.00
2022-10-30T03:15:33.586Z,0.00
2022-10-30T03:16:33.589Z,0.00
2022-10-30T03:17:33.602Z,0.00
2022-10-30T03:18:33.557Z,0.00
2022-10-30T03:19:33.540Z,0.00
2022-10-30T03:20:33.534Z,0.00
2022-10-30T03:21:33.519Z,0.00
2022-10-30T03:22:33.521Z,0.00
2022-10-30T03:23:33.497Z,0.00
2022-10-30T03:24:33.490Z,0.00
2022-10-30T03:25:33.473Z,0.00
2022-10-30T03:26:33.469Z,0.00
2022-10-30T03:27:33.460Z,0.00
2022-10-30T03:28:33.446Z,0.00
2022-10-30T03:29:33.431Z,0.00
2022-10-30T03:30:33.424Z,0.00
2022-10-30T03:31:33.415Z,0.00
2022-10-30T03:32:33.427Z,0.00
2022-10-30T03:33:33.398Z,0.00
2022-10-30T03:34:33.379Z,0.00
2022-10-30T03:35:33.367Z,0.00
2022-10-30T03:36:33.364Z,0.00
2022-10-30T03:37:33.342Z,0.00
2022-10-30T03:38:33.339Z,0.00
2022-10-30T03:39:33.320Z,0.00
2022-10-30T03:40:33.310Z,0.00
2022-10-30T03:41:33.313Z,0.00
2022-10-30T03:42:33.289Z,0.00
2022-10-30T03:43:33.283Z,0.00
2022-10-30T03:44:33.267Z,0.00
2022-10-30T03:45:33.260Z,0.00
2022-10-30T03:46:33.242Z,0.00
2022-10-30T03:47:33.247Z,0.00
2022-10-30T03:48:33.222Z,0.00
2022-10-30T03:49:33.221Z,0.00
2022-10-30T03:50:33.199Z,0.00
2022-10-30T03:51:33.243Z,0.00
2022-10-30T03:52:33.186Z,0.00
2022-10-30T03:53:33.171Z,0.00
2022-10-30T03:54:33.157Z,0.00
2022-10-30T03:55:33.149Z,0.00
2022-10-30T03:56:33.143Z,0.00
2022-10-30T03:57:33.127Z,0.00
2022-10-30T03:58:33.113Z,0.00
2022-10-30T03:59:33.117Z,0.00
2022-10-30T04:00:33.091Z,0.00
2022-10-30T04:01:33.357Z,0.00
2022-10-30T04:02:33.067Z,0.00
2022-10-30T04:03:33.064Z,0.00
2022-10-30T04:04:33.047Z,0.00
2022-10-30T04:05:33.041Z,0.00
2022-10-30T04:06:33.030Z,0.00
2022-10-30T04:07:33.018Z,0.00
2022-10-30T04:08:33.001Z,0.00
2022-10-30T04:09:32.994Z,0.00
2022-10-30T04:10:32.980Z,0.00
2022-10-30T04:11:32.986Z,0.00
2022-10-30T04:12:32.960Z,0.00
2022-10-30T04:13:32.950Z,0.00
2022-10-30T04:14:32.935Z,0.00
2022-10-30T04:15:32.931Z,0.00
2022-10-30T04:16:32.931Z,0.00
2022-10-30T04:17:32.905Z,0.00
2022-10-30T04:18:32.891Z,0.00
2022-10-30T04:19:32.885Z,0.00
2022-10-30T04:20:32.869Z,0.00
2022-10-30T04:21:32.869Z,0.00
2022-10-30T04:22:32.845Z,0.00
2022-10-30T04:23:32.838Z,0.00
2022-10-30T04:24:32.829Z,0.00
2022-10-30T04:25:32.819Z,0.00
2022-10-30T04:26:32.809Z,0.00
2022-10-30T04:27:32.795Z,0.00
2022-10-30T04:28:32.783Z,0.00
2022-10-30T04:29:32.772Z,0.00
2022-10-30T04:30:32.754Z,0.00
2022-10-30T04:31:32.757Z,0.00
2022-10-30T04:32:32.899Z,0.00
2022-10-30T04:33:32.726Z,0.00
2022-10-30T04:34:32.713Z,0.00
2022-10-30T04:35:32.704Z,0.00
2022-10-30T04:36:32.697Z,0.00
2022-10-30T04:37:32.683Z,0.00
2022-10-30T04:38:32.666Z,0.00
2022-10-30T04:39:32.660Z,0.00
2022-10-30T04:40:32.644Z,0.00
2022-10-30T04:41:32.645Z,0.00
2022-10-30T04:42:32.621Z,0.00
2022-10-30T04:43:32.617Z,0.00
2022-10-30T04:44:32.598Z,0.00
2022-10-30T04:45:32.595Z,0.00
2022-10-30T04:46:32.590Z,0.00
2022-10-30T04:48:32.557Z,0.00
2022-10-30T04:49:32.547Z,0.00
2022-10-30T04:50:32.531Z,0.00
2022-10-30T04:51:32.534Z,0.00
2022-10-30T04:52:32.511Z,0.00
2022-10-30T04:53:32.503Z,0.00
2022-10-30T04:54:32.527Z,0.00
2022-10-30T04:55:32.488Z,0.00
2022-10-30T04:56:32.478Z,0.00
2022-10-30T04:57:32.457Z,0.00
2022-10-30T04:58:32.442Z,0.00
2022-10-30T04:59:32.436Z,0.00
2022-10-30T05:00:32.432Z,0.00
2022-10-30T05:01:32.750Z,0.00
2022-10-30T05:02:32.575Z,0.00
2022-10-30T05:03:32.391Z,0.00
2022-10-30T05:04:32.381Z,0.00
2022-10-30T05:05:32.368Z,0.00
2022-10-30T05:06:32.362Z,0.00
2022-10-30T05:07:32.345Z,0.00
2022-10-30T05:08:32.327Z,0.00
2022-10-30T05:09:32.324Z,0.00
2022-10-30T05:10:32.308Z,0.00
2022-10-30T05:11:32.319Z,0.00
2022-10-30T05:12:32.288Z,0.00
2022-10-30T05:13:32.274Z,0.00
2022-10-30T05:14:32.266Z,0.00
2022-10-30T05:15:32.250Z,0.00
2022-10-30T05:16:32.260Z,0.00
2022-10-30T05:17:32.237Z,0.00
2022-10-30T05:18:32.221Z,0.00
2022-10-30T05:19:32.206Z,0.00
2022-10-30T05:20:32.203Z,0.00
2022-10-30T05:21:32.182Z,0.00
2022-10-30T05:22:32.186Z,0.00
2022-10-30T05:23:32.164Z,0.00
2022-10-30T05:24:32.155Z,0.00
2022-10-30T05:25:32.137Z,0.00
2022-10-30T05:26:32.136Z,0.00
2022-10-30T05:27:32.126Z,0.00
2022-10-30T05:28:32.108Z,0.00
2022-10-30T05:29:32.093Z,0.00
2022-10-30T05:30:32.086Z,0.00
2022-10-30T05:31:32.083Z,0.00
2022-10-30T05:32:32.079Z,0.00
2022-10-30T05:33:32.049Z,0.00
2022-10-30T05:34:32.043Z,0.00
2022-10-30T05:35:32.029Z,0.00
2022-10-30T05:36:32.019Z,0.00
2022-10-30T05:37:32.013Z,0.00
2022-10-30T05:38:31.997Z,0.00
2022-10-30T05:39:31.981Z,0.00
2022-10-30T05:40:31.974Z,0.00
2022-10-30T05:41:31.959Z,0.00
2022-10-30T05:42:31.960Z,0.00
2022-10-30T05:43:31.938Z,0.00
2022-10-30T05:44:58.702Z,0.00
2022-10-30T05:45:31.920Z,0.00
2022-10-30T05:46:31.909Z,0.00
2022-10-30T05:47:31.903Z,0.00
2022-10-30T05:48:31.885Z,0.00
2022-10-30T05:49:31.871Z,0.00
2022-10-30T05:50:31.863Z,0.00
2022-10-30T05:51:35.275Z,0.00
2022-10-30T05:52:31.856Z,0.00
2022-10-30T05:53:31.824Z,4.00
2022-10-30T05:54:31.818Z,4.00
2022-10-30T05:55:31.801Z,4.00
2022-10-30T05:56:31.797Z,4.00
2022-10-30T05:57:31.793Z,4.00
2022-10-30T05:58:31.774Z,8.00
2022-10-30T05:59:31.758Z,4.00
2022-10-30T06:00:31.757Z,4.00
2022-10-30T06:01:31.809Z,8.00
2022-10-30T06:02:31.810Z,8.00
2022-10-30T06:03:31.722Z,8.00
2022-10-30T06:04:31.711Z,12.00
2022-10-30T06:05:31.691Z,12.00
2022-10-30T06:06:31.685Z,16.00
2022-10-30T06:07:31.680Z,20.00
2022-10-30T06:08:31.661Z,20.00
2022-10-30T06:09:31.646Z,24.00
2022-10-30T06:10:31.640Z,28.00
2022-10-30T06:11:31.625Z,32.00
2022-10-30T06:12:31.626Z,36.00
2022-10-30T06:13:31.603Z,40.00
2022-10-30T06:14:31.609Z,48.00
2022-10-30T06:15:31.583Z,52.00
2022-10-30T06:17:31.569Z,60.00
2022-10-30T06:18:31.560Z,72.00
2022-10-30T06:19:31.537Z,72.00
2022-10-30T06:20:31.536Z,84.00
2022-10-30T06:21:31.514Z,92.00
2022-10-30T06:22:31.517Z,100.00
2022-10-30T06:23:31.495Z,108.00
2022-10-30T06:24:31.503Z,112.00
2022-10-30T06:25:33.121Z,124.00
2022-10-30T06:26:31.600Z,136.00
2022-10-30T06:27:31.557Z,144.00
2022-10-30T06:28:31.445Z,156.00
2022-10-30T06:29:31.476Z,168.00
2022-10-30T06:30:31.419Z,176.00
2022-10-30T06:31:31.404Z,192.00
2022-10-30T06:32:31.408Z,204.00
2022-10-30T06:33:31.381Z,216.00
2022-10-30T06:34:31.374Z,228.00
2022-10-30T06:35:31.359Z,244.00
2022-10-30T06:36:31.351Z,252.00
2022-10-30T06:37:31.371Z,268.00
2022-10-30T06:38:31.333Z,280.00
2022-10-30T06:39:31.314Z,292.00
2022-10-30T06:40:31.303Z,304.00
2022-10-30T06:41:31.297Z,320.00
2022-10-30T06:42:31.289Z,328.00
2022-10-30T06:43:31.274Z,348.00
2022-10-30T06:44:31.274Z,360.00
2022-10-30T06:45:31.255Z,372.00
2022-10-30T06:46:33.664Z,384.00
2022-10-30T06:47:31.239Z,400.00
2022-10-30T06:48:31.214Z,412.00
2022-10-30T06:49:31.212Z,424.00
2022-10-30T06:50:31.238Z,432.00
2022-10-30T06:51:31.188Z,444.00
2022-10-30T06:52:31.179Z,452.00
2022-10-30T06:53:31.170Z,464.00
2022-10-30T06:54:31.150Z,472.00
2022-10-30T06:55:31.158Z,484.00
2022-10-30T06:56:31.132Z,496.00
2022-10-30T06:57:31.128Z,504.00
2022-10-30T06:58:31.134Z,512.00
2022-10-30T06:59:31.096Z,524.00
2022-10-30T07:00:31.080Z,528.00
2022-10-30T07:01:31.149Z,536.00
2022-10-30T07:02:31.095Z,548.00
2022-10-30T07:03:31.052Z,560.00
2022-10-30T07:04:31.038Z,580.00
2022-10-30T07:05:31.036Z,604.00
2022-10-30T07:06:31.016Z,624.00
2022-10-30T07:07:31.014Z,648.00
2022-10-30T07:08:30.989Z,668.00
2022-10-30T07:09:30.982Z,688.00
2022-10-30T07:10:30.970Z,704.00
2022-10-30T07:11:30.961Z,716.00
2022-10-30T07:12:30.953Z,728.00
2022-10-30T07:13:30.940Z,740.00
2022-10-30T07:14:30.922Z,752.00
2022-10-30T07:15:30.952Z,768.00
2022-10-30T07:16:30.901Z,784.00
2022-10-30T07:17:30.933Z,796.00
2022-10-30T07:18:30.898Z,808.00
2022-10-30T07:19:30.871Z,840.00
2022-10-30T07:20:30.875Z,868.00
2022-10-30T07:21:30.849Z,888.00
2022-10-30T07:22:30.843Z,912.00
2022-10-30T07:23:30.832Z,928.00
2022-10-30T07:24:30.864Z,948.00
2022-10-30T07:25:30.803Z,948.00
2022-10-30T07:26:30.806Z,964.00
2022-10-30T07:27:30.791Z,972.00
2022-10-30T07:28:30.783Z,992.00
2022-10-30T07:29:30.758Z,1000.00
2022-10-30T07:30:30.745Z,1008.00
2022-10-30T07:31:41.760Z,1016.00
2022-10-30T07:32:30.743Z,1020.00
2022-10-30T07:33:30.714Z,1020.00
2022-10-30T07:34:30.704Z,1012.00
2022-10-30T07:35:30.767Z,1012.00
2022-10-30T07:36:30.679Z,1012.00
2022-10-30T07:37:30.674Z,1016.00
2022-10-30T07:38:30.662Z,1016.00
2022-10-30T07:39:30.654Z,1024.00
2022-10-30T07:40:30.630Z,1032.00
2022-10-30T07:41:30.624Z,1036.00
2022-10-30T07:42:30.610Z,1036.00
2022-10-30T07:43:30.614Z,1040.00
2022-10-30T07:44:30.590Z,1048.00
2022-10-30T07:45:30.585Z,1048.00
2022-10-30T07:46:30.570Z,1052.00
2022-10-30T07:47:30.562Z,1060.00
2022-10-30T07:48:30.651Z,1060.00
2022-10-30T07:49:30.585Z,1064.00
2022-10-30T07:50:30.594Z,1064.00
2022-10-30T07:51:33.412Z,1064.00
2022-10-30T07:52:31.156Z,1064.00
2022-10-30T07:53:30.915Z,1064.00
2022-10-30T07:54:31.164Z,1064.00
2022-10-30T07:55:30.470Z,1044.00
2022-10-30T07:56:30.458Z,1056.00
2022-10-30T07:57:30.446Z,1064.00
2022-10-30T07:58:30.441Z,1068.00
2022-10-30T07:59:30.428Z,1072.00
2022-10-30T08:00:30.412Z,1076.00
2022-10-30T08:01:30.543Z,1076.00
2022-10-30T08:02:30.515Z,1080.00
2022-10-30T08:03:30.410Z,1084.00
2022-10-30T08:04:30.416Z,1084.00
2022-10-30T08:05:30.536Z,1088.00
2022-10-30T08:06:30.348Z,1096.00
2022-10-30T08:07:30.338Z,1104.00
2022-10-30T08:08:30.335Z,1116.00
2022-10-30T08:09:30.316Z,1120.00
2022-10-30T08:10:30.301Z,1136.00
2022-10-30T08:11:30.292Z,1144.00
2022-10-30T08:12:30.278Z,1152.00
2022-10-30T08:13:30.279Z,1164.00
2022-10-30T08:14:30.256Z,1168.00
2022-10-30T08:15:30.250Z,1172.00
2022-10-30T08:16:30.240Z,1172.00
2022-10-30T08:17:30.228Z,1172.00
2022-10-30T08:18:30.219Z,1172.00
2022-10-30T08:19:30.208Z,1168.00
2022-10-30T08:20:30.192Z,1168.00
2022-10-30T08:21:30.188Z,1172.00
2022-10-30T08:22:30.174Z,1168.00
2022-10-30T08:23:30.170Z,1164.00
2022-10-30T08:24:30.148Z,1172.00
2022-10-30T08:25:30.160Z,1180.00
2022-10-30T08:26:30.122Z,1188.00
2022-10-30T08:27:30.116Z,1188.00
2022-10-30T08:28:32.886Z,1192.00
2022-10-30T08:29:30.100Z,1192.00
2022-10-30T08:30:30.100Z,1200.00
2022-10-30T08:31:30.070Z,1204.00
2022-10-30T08:32:30.054Z,1212.00
2022-10-30T08:33:30.058Z,1208.00
2022-10-30T08:34:30.030Z,1208.00
2022-10-30T08:35:30.076Z,1192.00
2022-10-30T08:36:30.009Z,1196.00
2022-10-30T08:37:30.001Z,1204.00
2022-10-30T08:38:29.994Z,1204.00
2022-10-30T08:39:29.978Z,1200.00
2022-10-30T08:40:29.965Z,1204.00
2022-10-30T08:41:29.958Z,1204.00
2022-10-30T08:42:29.941Z,1204.00
2022-10-30T08:43:29.945Z,1208.00
2022-10-30T08:44:29.917Z,1212.00
2022-10-30T08:45:31.387Z,1212.00
2022-10-30T08:46:29.896Z,1212.00
2022-10-30T08:47:29.889Z,1204.00
2022-10-30T08:48:29.889Z,1204.00
2022-10-30T08:49:29.865Z,1208.00
2022-10-30T08:50:29.851Z,1212.00
2022-10-30T08:51:29.843Z,1204.00
2022-10-30T08:52:29.825Z,1168.00
2022-10-30T08:53:29.829Z,1176.00
2022-10-30T08:54:29.806Z,1192.00
2022-10-30T08:55:29.797Z,1212.00
2022-10-30T08:56:29.786Z,1216.00
2022-10-30T08:57:29.781Z,1212.00
2022-10-30T08:58:29.786Z,1216.00
2022-10-30T08:59:29.790Z,1224.00
2022-10-30T09:00:29.741Z,1224.00
2022-10-30T09:01:29.807Z,1232.00
2022-10-30T09:02:29.902Z,1232.00
2022-10-30T09:03:29.720Z,1232.00
2022-10-30T09:04:29.692Z,1240.00
2022-10-30T09:05:29.685Z,1244.00
2022-10-30T09:06:29.672Z,1248.00
2022-10-30T09:07:29.664Z,1244.00
2022-10-30T09:08:29.662Z,1248.00
2022-10-30T09:09:29.640Z,1252.00
2022-10-30T09:10:29.630Z,1252.00
2022-10-30T09:11:29.667Z,1256.00
2022-10-30T09:12:29.662Z,1264.00
2022-10-30T09:13:29.609Z,1272.00
2022-10-30T09:14:29.584Z,1276.00
2022-10-30T09:15:29.594Z,1276.00
2022-10-30T09:16:29.580Z,1264.00
2022-10-30T09:17:29.550Z,1252.00
2022-10-30T09:18:29.639Z,1256.00
2022-10-30T09:19:29.605Z,1256.00
2022-10-30T09:20:29.600Z,1236.00
2022-10-30T09:21:29.538Z,1244.00
2022-10-30T09:22:29.538Z,1256.00
2022-10-30T09:23:29.494Z,1280.00
2022-10-30T09:24:29.470Z,1296.00
2022-10-30T09:25:29.462Z,1304.00
2022-10-30T09:26:29.450Z,1316.00
2022-10-30T09:27:29.435Z,1324.00
2022-10-30T09:28:29.438Z,1328.00
2022-10-30T09:29:29.421Z,1336.00
2022-10-30T09:30:29.409Z,1340.00
2022-10-30T09:31:29.397Z,1344.00
2022-10-30T09:32:29.395Z,1352.00
2022-10-30T09:33:29.372Z,1356.00
2022-10-30T09:34:29.369Z,1360.00
2022-10-30T09:35:29.364Z,1364.00
2022-10-30T09:36:29.369Z,1372.00
2022-10-30T09:37:29.324Z,1376.00
2022-10-30T09:38:29.328Z,1380.00
2022-10-30T09:39:29.302Z,1384.00
2022-10-30T09:40:29.292Z,1388.00
2022-10-30T09:41:29.289Z,1408.00
2022-10-30T09:42:29.268Z,1420.00
2022-10-30T09:43:29.270Z,1432.00
2022-10-30T09:44:29.248Z,1436.00
2022-10-30T09:45:30.326Z,1440.00
2022-10-30T09:46:29.222Z,1448.00
2022-10-30T09:47:29.217Z,1452.00
2022-10-30T09:48:29.211Z,1460.00
2022-10-30T09:49:29.197Z,1468.00
2022-10-30T09:50:29.176Z,1468.00
2022-10-30T09:51:29.174Z,1480.00
2022-10-30T09:52:29.154Z,1464.00
2022-10-30T09:53:29.160Z,1468.00
2022-10-30T09:54:29.133Z,1448.00
2022-10-30T09:55:29.130Z,1444.00
2022-10-30T09:56:29.114Z,1436.00
2022-10-30T09:57:29.106Z,1424.00
2022-10-30T09:58:29.097Z,1416.00
2022-10-30T09:59:29.087Z,1400.00
2022-10-30T10:00:29.070Z,1388.00
2022-10-30T10:01:29.151Z,1544.00
2022-10-30T10:02:29.235Z,1584.00
2022-10-30T10:03:29.047Z,1576.00
2022-10-30T10:04:29.023Z,1576.00
2022-10-30T10:05:29.022Z,1572.00
2022-10-30T10:06:29.000Z,1572.00
2022-10-30T10:07:28.995Z,1580.00
2022-10-30T10:08:28.985Z,1580.00
2022-10-30T10:09:29.032Z,1584.00
2022-10-30T10:10:28.956Z,1584.00
2022-10-30T10:11:28.947Z,1584.00
2022-10-30T10:12:28.931Z,1548.00
2022-10-30T10:13:28.950Z,1536.00
2022-10-30T10:14:28.908Z,1536.00
2022-10-30T10:15:28.907Z,1552.00
2022-10-30T10:16:28.887Z,1560.00
2022-10-30T10:17:28.879Z,1552.00
2022-10-30T10:18:28.898Z,1548.00
2022-10-30T10:19:28.863Z,1544.00
2022-10-30T10:20:28.841Z,1516.00
2022-10-30T10:21:28.833Z,1584.00
2022-10-30T10:22:28.824Z,1580.00
2022-10-30T10:23:28.944Z,1588.00
2022-10-30T10:24:28.796Z,1592.00
2022-10-30T10:25:28.790Z,1600.00
2022-10-30T10:26:28.774Z,1608.00
2022-10-30T10:27:28.770Z,1616.00
2022-10-30T10:28:30.675Z,1628.00
2022-10-30T10:29:28.745Z,1640.00
2022-10-30T10:30:28.730Z,1656.00
2022-10-30T10:31:28.722Z,1680.00
2022-10-30T10:32:28.713Z,1704.00
2022-10-30T10:33:28.712Z,1716.00
2022-10-30T10:34:28.694Z,1708.00
2022-10-30T10:35:28.677Z,1712.00
2022-10-30T10:36:28.668Z,1700.00
2022-10-30T10:37:28.659Z,1700.00
2022-10-30T10:38:28.653Z,1692.00
2022-10-30T10:39:28.634Z,1684.00
2022-10-30T10:40:28.632Z,1672.00
2022-10-30T10:41:28.613Z,1672.00
2022-10-30T10:42:28.600Z,1672.00
2022-10-30T10:43:28.601Z,1680.00
2022-10-30T10:44:28.576Z,1660.00
2022-10-30T10:45:28.571Z,1680.00
2022-10-30T10:46:28.553Z,1660.00
2022-10-30T10:47:28.548Z,1700.00
2022-10-30T10:48:28.541Z,1688.00
2022-10-30T10:49:28.524Z,1672.00
2022-10-30T10:50:28.510Z,1704.00
2022-10-30T10:51:28.557Z,1696.00
2022-10-30T10:52:28.496Z,1708.00
2022-10-30T10:53:28.496Z,1676.00
2022-10-30T10:54:28.494Z,1636.00
2022-10-30T10:55:28.589Z,1636.00
2022-10-30T10:56:28.568Z,1648.00
2022-10-30T10:57:28.519Z,1640.00
2022-10-30T10:58:28.517Z,1644.00
2022-10-30T10:59:28.425Z,1640.00
2022-10-30T11:00:28.416Z,1656.00
2022-10-30T11:01:28.519Z,1584.00
2022-10-30T11:02:28.540Z,1580.00
2022-10-30T11:03:28.492Z,1636.00
2022-10-30T11:04:28.501Z,1636.00
2022-10-30T11:05:28.350Z,1636.00
2022-10-30T11:06:29.249Z,1584.00
2022-10-30T11:07:28.395Z,1608.00
2022-10-30T11:08:28.327Z,1556.00
2022-10-30T11:09:29.243Z,1560.00
2022-10-30T11:10:28.309Z,1548.00
2022-10-30T11:11:28.316Z,1564.00
2022-10-30T11:12:30.895Z,1532.00
2022-10-30T11:13:28.341Z,1528.00
2022-10-30T11:14:28.296Z,1524.00
2022-10-30T11:15:28.315Z,1512.00
2022-10-30T11:16:28.236Z,1512.00
2022-10-30T11:17:28.254Z,1488.00
2022-10-30T11:18:28.199Z,1508.00
2022-10-30T11:19:28.213Z,1492.00
2022-10-30T11:20:28.176Z,1468.00
2022-10-30T11:21:28.168Z,1452.00
2022-10-30T11:22:28.167Z,1456.00
2022-10-30T11:23:28.148Z,1452.00
2022-10-30T11:24:28.143Z,1456.00
2022-10-30T11:25:28.676Z,1456.00
2022-10-30T11:26:28.115Z,1460.00
2022-10-30T11:27:28.120Z,1468.00
2022-10-30T11:28:28.088Z,1452.00
2022-10-30T11:29:28.088Z,1448.00
2022-10-30T11:30:28.067Z,1444.00
2022-10-30T11:31:28.059Z,1436.00
2022-10-30T11:32:28.042Z,1412.00
2022-10-30T11:33:28.035Z,1400.00
2022-10-30T11:34:28.031Z,1384.00
2022-10-30T11:35:28.015Z,1400.00
2022-10-30T11:36:27.995Z,1412.00
2022-10-30T11:37:27.990Z,1408.00
2022-10-30T11:38:27.974Z,1368.00
2022-10-30T11:39:27.975Z,1364.00
2022-10-30T11:40:27.951Z,1372.00
2022-10-30T11:41:27.946Z,1376.00
2022-10-30T11:42:27.932Z,1384.00
2022-10-30T11:43:27.924Z,1388.00
2022-10-30T11:44:27.919Z,1388.00
2022-10-30T11:45:27.901Z,1372.00
2022-10-30T11:46:27.886Z,1372.00
2022-10-30T11:47:27.934Z,1384.00
2022-10-30T11:48:27.884Z,1404.00
2022-10-30T11:49:27.867Z,1412.00
2022-10-30T11:50:27.838Z,1416.00
2022-10-30T11:51:27.871Z,1400.00
2022-10-30T11:52:27.819Z,1384.00
2022-10-30T11:53:27.812Z,1372.00
2022-10-30T11:54:27.802Z,1344.00
2022-10-30T11:55:27.788Z,1380.00
2022-10-30T11:56:27.773Z,1360.00
2022-10-30T11:57:27.766Z,1372.00
2022-10-30T11:58:27.749Z,1380.00
2022-10-30T11:59:27.750Z,1404.00
2022-10-30T12:00:27.725Z,1412.00
2022-10-30T12:01:27.872Z,1424.00
2022-10-30T12:02:27.810Z,1436.00
2022-10-30T12:03:27.695Z,1420.00
2022-10-30T12:04:27.690Z,1428.00
2022-10-30T12:05:27.696Z,1440.00
2022-10-30T12:06:27.662Z,1444.00
2022-10-30T12:07:27.650Z,1456.00
2022-10-30T12:08:27.639Z,1460.00
2022-10-30T12:09:27.636Z,1464.00
2022-10-30T12:10:27.612Z,1476.00
2022-10-30T12:11:27.605Z,1492.00
2022-10-30T12:12:27.591Z,1488.00
2022-10-30T12:13:27.582Z,1508.00
2022-10-30T12:14:27.576Z,1504.00
2022-10-30T12:15:27.562Z,1516.00
2022-10-30T12:16:27.545Z,1540.00
2022-10-30T12:17:27.547Z,1544.00
2022-10-30T12:19:27.524Z,1572.00
2022-10-30T12:20:27.502Z,1584.00
2022-10-30T12:21:27.553Z,1588.00
2022-10-30T12:22:27.476Z,1600.00
2022-10-30T12:23:27.471Z,1596.00
2022-10-30T12:24:27.480Z,1608.00
2022-10-30T12:25:27.458Z,1612.00
2022-10-30T12:26:27.435Z,1632.00
2022-10-30T12:27:27.423Z,1640.00
2022-10-30T12:28:27.411Z,1640.00
2022-10-30T12:29:41.786Z,1636.00
2022-10-30T12:30:27.400Z,1620.00
2022-10-30T12:31:27.380Z,1628.00
2022-10-30T12:32:27.364Z,1644.00
2022-10-30T12:33:27.355Z,1664.00
2022-10-30T12:34:27.338Z,1664.00
2022-10-30T12:35:27.343Z,1680.00
2022-10-30T12:36:27.316Z,1684.00
2022-10-30T12:37:27.315Z,1680.00
2022-10-30T12:38:27.294Z,1676.00
2022-10-30T12:39:27.288Z,1664.00
2022-10-30T12:40:27.288Z,1676.00
2022-10-30T12:41:27.261Z,1676.00
2022-10-30T12:42:27.257Z,1688.00
2022-10-30T12:43:27.244Z,1692.00
2022-10-30T12:44:27.231Z,1712.00